Flight Track Log - Related Links

Times and Time Zones

All times are in EDT time to prevent confusion due to time zone crossing. See the SWA1728 flight status page for this flight to view local times or setup timezone preferences in your user account.

Time Position Orientation Groundspeed Altitude Reporting Facility
EDT Latitude Longitude Course Direction KTS MPH feet Rate Location/Type
Wed 03:52:01 PM 41.3175 -95.9142 315° West 183 211 1,700  Level Minneapolis Center
Wed 03:52:56 PM 41.3519 -95.9603 315° West 209 241 3,900 2,466 Climbing Minneapolis Center
Wed 03:53:14 PM 41.3575 -95.9719 302° West 229 264 4,700 1,650 Climbing Minneapolis Center
Wed 03:54:16 PM 41.3744 -96.0394 289° West 220 253 6,100 2,952 Climbing Minneapolis Center
Wed 03:55:18 PM 41.3569 -96.1497 258° West 234 269 10,800 3,024 Climbing Minneapolis Center
Wed 03:56:19 PM 41.3444 -96.2617 262° West 296 341 12,300 2,098 Climbing Minneapolis Center
Wed 03:57:21 PM 41.3314 -96.3839 262° West 326 375 15,100 2,516 Climbing Minneapolis Center
Wed 03:58:23 PM 41.3178 -96.5075 262° West 336 387 17,500 1,985 Climbing Minneapolis Center
Wed 03:59:37 PM 41.3036 -96.6361 262° West 346 398 19,600 2,074 Climbing Minneapolis Center
Wed 04:00:39 PM 41.2869 -96.7911 262° West 353 406 22,200 2,323 Climbing Minneapolis Center
Wed 04:01:41 PM 41.2689 -96.9478 261° West 357 411 24,400 1,935 Climbing Minneapolis Center
Wed 04:02:43 PM 41.2536 -97.0811 261° West 362 417 26,200 1,839 Climbing Minneapolis Center
Wed 04:03:45 PM 41.2386 -97.2106 261° West 359 413 28,200 1,659 Climbing Minneapolis Center
Wed 04:04:46 PM 41.2242 -97.3394 262° West 354 407 29,600 1,659 Climbing Minneapolis Center
Wed 04:05:48 PM 41.2075 -97.4758 261° West 351 404 31,600 1,645 Climbing Minneapolis Center
Wed 04:06:50 PM 41.1928 -97.5992 261° West 342 394 33,000 1,258 Climbing Minneapolis Center
Wed 04:07:52 PM 41.1778 -97.7231 261° West 339 390 34,200 968 Climbing Minneapolis Center
Wed 04:08:54 PM 41.1636 -97.8450 261° West 336 387 35,000 683 Climbing Minneapolis Center
Wed 04:09:55 PM 41.1486 -97.9694 261° West 338 389 35,600 488 Climbing Minneapolis Center
Wed 04:10:57 PM 41.1294 -98.1211 261° West 345 397 36,000 194 Climbing Minneapolis Center
Wed 04:11:59 PM 41.1128 -98.2550 261° West 360 414 36,000  Level Minneapolis Center
Wed 04:13:01 PM 41.0972 -98.3881 261° West 364 419 36,000  Level Minneapolis Center
Wed 04:14:03 PM 41.0817 -98.5064 260° West 360 414 36,000  Level Minneapolis Center
Wed 04:15:05 PM 41.0628 -98.6633 261° West 359 413 36,000  Level Minneapolis Center
Wed 04:16:07 PM 41.0458 -98.7925 260° West 358 412 36,000  Level Minneapolis Center
Wed 04:17:09 PM 41.0289 -98.9217 260° West 356 410 36,000  Level Minneapolis Center
Wed 04:18:11 PM 41.0114 -99.0514 260° West 358 412 36,000  Level Minneapolis Center
Wed 04:19:13 PM 40.9950 -99.1781 260° West 357 411 36,000  Level Minneapolis Center
Wed 04:20:27 PM 40.9772 -99.3089 260° West 359 413 36,000  Level Minneapolis Center
Wed 04:21:29 PM 40.9528 -99.4903 260° West 358 412 36,000  Level Minneapolis Center
Wed 04:22:30 PM 40.9322 -99.6189 258° West 357 411 36,000  Level Denver Center
Wed 04:23:32 PM 40.9119 -99.7486 258° West 358 412 36,000  Level Denver Center
Wed 04:24:34 PM 40.8922 -99.8764 259° West 357 411 36,000  Level Denver Center
Wed 04:25:35 PM 40.8697 -100.0189 258° West 356 410 36,000  Level Denver Center
Wed 04:26:37 PM 40.8511 -100.1417 259° West 356 410 36,000  Level Denver Center
Wed 04:27:39 PM 40.8336 -100.2436 257° West 357 411 36,000  Level Denver Center
Wed 04:28:41 PM 40.8083 -100.4053 258° West 354 407 36,000  Level Denver Center
Wed 04:29:43 PM 40.7894 -100.5261 258° West 350 403 36,000  Level Denver Center
Wed 04:30:45 PM 40.7669 -100.6683 258° West 351 404 36,000  Level Denver Center
Wed 04:31:47 PM 40.7458 -100.7933 257° West 354 407 36,000  Level Denver Center
Wed 04:32:49 PM 40.7250 -100.9181 258° West 358 412 36,000  Level Denver Center
Wed 04:33:50 PM 40.7075 -101.0222 258° West 362 417 36,000  Level Denver Center
Wed 04:34:52 PM 40.6803 -101.1872 258° West 362 417 36,000  Level Denver Center
Wed 04:35:54 PM 40.6558 -101.3303 257° West 358 412 36,000  Level Denver Center
Wed 04:37:08 PM 40.6344 -101.4536 257° West 359 413 36,000  Level Denver Center
Wed 04:38:10 PM 40.6067 -101.6164 257° West 357 411 36,000  Level Denver Center
Wed 04:39:12 PM 40.5858 -101.7381 257° West 356 410 36,000  Level Denver Center
Wed 04:40:14 PM 40.5608 -101.8800 257° West 357 411 36,000  Level Denver Center
Wed 04:41:16 PM 40.5408 -102.0014 258° West 356 410 36,000  Level Denver Center
Wed 04:42:18 PM 40.5161 -102.1433 257° West 357 411 36,000  Level Denver Center
Wed 04:43:20 PM 40.4942 -102.2636 257° West 353 406 36,000  Level Denver Center
Wed 04:44:21 PM 40.4733 -102.3856 257° West 356 410 36,000  Level Denver Center
Wed 04:45:23 PM 40.4461 -102.5289 256° West 362 417 36,000  Level Denver Center
Wed 04:46:25 PM 40.4239 -102.6508 257° West 360 414 36,000 -194 Level Denver Center
Wed 04:47:27 PM 40.3997 -102.7908 257° West 359 413 35,600 -1,548 Descending Denver Center
Wed 04:48:29 PM 40.3753 -102.9167 256° West 353 406 32,800 -2,565 Descending Denver Center
Wed 04:49:31 PM 40.3506 -103.0508 256° West 373 429 30,300 -2,488 Descending Denver Center
Wed 04:50:32 PM 40.3253 -103.1917 257° West 393 452 27,700 -2,390 Descending Denver Center
Wed 04:51:34 PM 40.2989 -103.3278 256° West 386 444 25,400 -2,371 Descending Denver Center
Wed 04:52:36 PM 40.2717 -103.4811 257° West 369 425 22,800 -2,323 Descending Denver Center
Wed 04:53:38 PM 40.2472 -103.6064 256° West 356 410 20,600 -1,984 Descending Denver Center
Wed 04:54:40 PM 40.2247 -103.7242 256° West 332 382 18,700 -1,839 Descending Denver Center
Wed 04:55:42 PM 40.2042 -103.8417 257° West 318 366 16,800 -1,887 Descending Denver Center
Wed 04:56:44 PM 40.1622 -103.9381 240° Southwest 304 350 14,800 -1,854 Descending Denver Center
Wed 04:57:45 PM 40.1142 -104.0406 239° Southwest 306 352 13,000 -1,024 Descending Denver Center
Wed 04:58:47 PM 40.0508 -104.0850 208° Southwest 280 322 12,700 -726 Descending Denver Center
Wed 04:59:49 PM 39.9814 -104.1017 190° South 259 298 11,500 -1,258 Descending Denver Center
Wed 05:00:51 PM 39.9317 -104.1708 227° Southwest 248 285 10,100 -1,210 Descending Denver Center
Wed 05:01:53 PM 39.9031 -104.2456 243° Southwest 234 269 9,000 -532 Descending Denver Center
Wed 05:02:55 PM 39.8833 -104.3256 252° West 232 267 9,000 -504 Level Denver Center
Wed 05:03:52 PM 39.8833 -104.4000 270° West 234 269 8,000 -872 Descending Denver TRACON
Wed 05:04:52 PM 39.8833 -104.5000 270° West 228 262 7,300 -900 Descending Denver TRACON
Wed 05:05:52 PM 39.8833 -104.5667 270° West 175 201 6,200 -1,100 Descending Denver TRACON
Wed 05:09:00 PM 39.8617 -104.6732 180° South  Level Estimated
Wed 05:16:00 PM 39.8617 -104.6732 339° North  Level Estimated
Wed 05:17:00 PM 39.8617 -104.6732 339° North  Level Estimated
Wed 05:18:00 PM 39.8617 -104.6732 339° North  Level Estimated

Login

Don't have an account? Register now (free) for customized features, flight alerts, and more!